sensor_id;sensor_type;location;lat;lon;timestamp;temperature;humidity
53711;DHT22;39605;52.704;6.752;2022-07-23T00:01:34;15.00;99.90
53711;DHT22;39605;52.704;6.752;2022-07-23T00:04:00;15.00;99.90
53711;DHT22;39605;52.704;6.752;2022-07-23T00:06:26;15.00;99.90
53711;DHT22;39605;52.704;6.752;2022-07-23T00:08:51;15.00;99.90
53711;DHT22;39605;52.704;6.752;2022-07-23T00:11:18;15.00;99.90
53711;DHT22;39605;52.704;6.752;2022-07-23T00:13:44;14.90;99.90
53711;DHT22;39605;52.704;6.752;2022-07-23T00:16:10;14.90;99.90
53711;DHT22;39605;52.704;6.752;2022-07-23T00:18:36;14.90;99.90
53711;DHT22;39605;52.704;6.752;2022-07-23T00:21:01;14.80;99.90
53711;DHT22;39605;52.704;6.752;2022-07-23T00:23:27;14.80;99.90
53711;DHT22;39605;52.704;6.752;2022-07-23T00:25:54;14.70;99.90
53711;DHT22;39605;52.704;6.752;2022-07-23T00:28:20;14.70;99.90
53711;DHT22;39605;52.704;6.752;2022-07-23T00:30:45;14.60;99.90
53711;DHT22;39605;52.704;6.752;2022-07-23T00:33:11;14.60;99.90
53711;DHT22;39605;52.704;6.752;2022-07-23T00:35:39;14.50;99.90
53711;DHT22;39605;52.704;6.752;2022-07-23T00:38:09;14.50;99.90
53711;DHT22;39605;52.704;6.752;2022-07-23T00:40:35;14.50;99.90
53711;DHT22;39605;52.704;6.752;2022-07-23T00:43:02;14.40;99.90
53711;DHT22;39605;52.704;6.752;2022-07-23T00:45:29;14.40;99.90
53711;DHT22;39605;52.704;6.752;2022-07-23T00:47:54;14.30;99.90
53711;DHT22;39605;52.704;6.752;2022-07-23T00:50:20;14.20;99.90
53711;DHT22;39605;52.704;6.752;2022-07-23T00:52:46;14.20;99.90
53711;DHT22;39605;52.704;6.752;2022-07-23T00:55:12;14.10;99.90
53711;DHT22;39605;52.704;6.752;2022-07-23T00:57:39;14.20;99.90
53711;DHT22;39605;52.704;6.752;2022-07-23T01:00:07;14.30;99.90
53711;DHT22;39605;52.704;6.752;2022-07-23T01:02:34;14.30;99.90
53711;DHT22;39605;52.704;6.752;2022-07-23T01:05:00;14.30;99.90
53711;DHT22;39605;52.704;6.752;2022-07-23T01:07:26;14.40;99.90
53711;DHT22;39605;52.704;6.752;2022-07-23T01:09:52;14.40;99.90
53711;DHT22;39605;52.704;6.752;2022-07-23T01:12:18;14.50;99.90
53711;DHT22;39605;52.704;6.752;2022-07-23T01:14:44;14.50;99.90
53711;DHT22;39605;52.704;6.752;2022-07-23T01:17:09;14.50;99.90
53711;DHT22;39605;52.704;6.752;2022-07-23T01:19:35;14.40;99.90
53711;DHT22;39605;52.704;6.752;2022-07-23T01:22:04;14.40;99.90
53711;DHT22;39605;52.704;6.752;2022-07-23T01:24:30;14.30;99.90
53711;DHT22;39605;52.704;6.752;2022-07-23T01:26:56;14.40;99.90
53711;DHT22;39605;52.704;6.752;2022-07-23T01:29:21;14.40;99.90
53711;DHT22;39605;52.704;6.752;2022-07-23T01:31:47;14.40;99.90
53711;DHT22;39605;52.704;6.752;2022-07-23T01:34:13;14.40;99.90
53711;DHT22;39605;52.704;6.752;2022-07-23T01:36:40;14.30;99.90
53711;DHT22;39605;52.704;6.752;2022-07-23T01:39:06;14.30;99.90
53711;DHT22;39605;52.704;6.752;2022-07-23T01:41:33;14.40;99.90
53711;DHT22;39605;52.704;6.752;2022-07-23T01:43:59;14.30;99.90
53711;DHT22;39605;52.704;6.752;2022-07-23T01:46:25;14.30;99.90
53711;DHT22;39605;52.704;6.752;2022-07-23T01:48:51;14.30;99.90
53711;DHT22;39605;52.704;6.752;2022-07-23T01:51:17;14.30;99.90
53711;DHT22;39605;52.704;6.752;2022-07-23T01:53:42;14.30;99.90
53711;DHT22;39605;52.704;6.752;2022-07-23T01:56:08;14.30;99.90
53711;DHT22;39605;52.704;6.752;2022-07-23T01:58:34;14.20;99.90
53711;DHT22;39605;52.704;6.752;2022-07-23T02:01:00;14.10;99.90
53711;DHT22;39605;52.704;6.752;2022-07-23T02:03:26;14.10;99.90
53711;DHT22;39605;52.704;6.752;2022-07-23T02:05:52;14.00;99.90
53711;DHT22;39605;52.704;6.752;2022-07-23T02:08:17;14.00;99.90
53711;DHT22;39605;52.704;6.752;2022-07-23T02:10:43;13.90;99.90
53711;DHT22;39605;52.704;6.752;2022-07-23T02:13:10;14.00;99.90
53711;DHT22;39605;52.704;6.752;2022-07-23T02:15:36;14.00;99.90
53711;DHT22;39605;52.704;6.752;2022-07-23T02:18:01;14.00;99.90
53711;DHT22;39605;52.704;6.752;2022-07-23T02:20:27;13.90;99.90
53711;DHT22;39605;52.704;6.752;2022-07-23T02:22:53;13.80;99.90
53711;DHT22;39605;52.704;6.752;2022-07-23T02:25:18;13.80;99.90
53711;DHT22;39605;52.704;6.752;2022-07-23T02:27:44;13.80;99.90
53711;DHT22;39605;52.704;6.752;2022-07-23T02:30:10;13.80;99.90
53711;DHT22;39605;52.704;6.752;2022-07-23T02:32:36;13.80;99.90
53711;DHT22;39605;52.704;6.752;2022-07-23T02:35:03;13.80;99.90
53711;DHT22;39605;52.704;6.752;2022-07-23T02:37:29;13.70;99.90
53711;DHT22;39605;52.704;6.752;2022-07-23T02:39:54;13.70;99.90
53711;DHT22;39605;52.704;6.752;2022-07-23T02:42:20;13.70;99.90
53711;DHT22;39605;52.704;6.752;2022-07-23T02:44:46;13.60;99.90
53711;DHT22;39605;52.704;6.752;2022-07-23T02:47:11;13.60;99.90
53711;DHT22;39605;52.704;6.752;2022-07-23T02:49:37;13.60;99.90
53711;DHT22;39605;52.704;6.752;2022-07-23T02:52:03;13.50;99.90
53711;DHT22;39605;52.704;6.752;2022-07-23T02:54:29;13.50;99.90
53711;DHT22;39605;52.704;6.752;2022-07-23T02:56:54;13.40;99.90
53711;DHT22;39605;52.704;6.752;2022-07-23T02:59:20;13.40;99.90
53711;DHT22;39605;52.704;6.752;2022-07-23T03:01:46;13.30;99.90
53711;DHT22;39605;52.704;6.752;2022-07-23T03:04:11;13.40;99.90
53711;DHT22;39605;52.704;6.752;2022-07-23T03:06:37;13.30;99.90
53711;DHT22;39605;52.704;6.752;2022-07-23T03:09:04;13.20;99.90
53711;DHT22;39605;52.704;6.752;2022-07-23T03:11:29;13.30;99.90
53711;DHT22;39605;52.704;6.752;2022-07-23T03:13:55;13.20;99.90
53711;DHT22;39605;52.704;6.752;2022-07-23T03:16:21;13.10;99.90
53711;DHT22;39605;52.704;6.752;2022-07-23T03:18:47;13.10;99.90
53711;DHT22;39605;52.704;6.752;2022-07-23T03:21:12;13.20;99.90
53711;DHT22;39605;52.704;6.752;2022-07-23T03:23:38;13.20;99.90
53711;DHT22;39605;52.704;6.752;2022-07-23T03:26:04;13.20;99.90
53711;DHT22;39605;52.704;6.752;2022-07-23T03:28:30;13.20;99.90
53711;DHT22;39605;52.704;6.752;2022-07-23T03:30:56;13.20;99.90
53711;DHT22;39605;52.704;6.752;2022-07-23T03:33:22;13.10;99.90
53711;DHT22;39605;52.704;6.752;2022-07-23T03:35:48;13.10;99.90
53711;DHT22;39605;52.704;6.752;2022-07-23T03:38:14;13.10;99.90
53711;DHT22;39605;52.704;6.752;2022-07-23T03:40:40;13.10;99.90
53711;DHT22;39605;52.704;6.752;2022-07-23T03:43:05;13.10;99.90
53711;DHT22;39605;52.704;6.752;2022-07-23T03:45:31;13.00;99.90
53711;DHT22;39605;52.704;6.752;2022-07-23T03:47:57;13.00;99.90
53711;DHT22;39605;52.704;6.752;2022-07-23T03:50:23;12.90;99.90
53711;DHT22;39605;52.704;6.752;2022-07-23T03:52:49;12.90;99.90
53711;DHT22;39605;52.704;6.752;2022-07-23T03:55:15;12.90;99.90
53711;DHT22;39605;52.704;6.752;2022-07-23T03:57:41;13.00;99.90
53711;DHT22;39605;52.704;6.752;2022-07-23T04:00:08;12.90;99.90
53711;DHT22;39605;52.704;6.752;2022-07-23T04:02:38;12.80;99.90
53711;DHT22;39605;52.704;6.752;2022-07-23T04:05:04;12.80;99.90
53711;DHT22;39605;52.704;6.752;2022-07-23T04:07:30;12.80;99.90
53711;DHT22;39605;52.704;6.752;2022-07-23T04:09:56;12.80;99.90
53711;DHT22;39605;52.704;6.752;2022-07-23T04:12:22;12.70;99.90
53711;DHT22;39605;52.704;6.752;2022-07-23T04:14:48;12.70;99.90
53711;DHT22;39605;52.704;6.752;2022-07-23T04:17:13;12.70;99.90
53711;DHT22;39605;52.704;6.752;2022-07-23T04:19:39;12.70;99.90
53711;DHT22;39605;52.704;6.752;2022-07-23T04:22:07;12.80;99.90
53711;DHT22;39605;52.704;6.752;2022-07-23T04:24:33;12.80;99.90
53711;DHT22;39605;52.704;6.752;2022-07-23T04:26:59;12.80;99.90
53711;DHT22;39605;52.704;6.752;2022-07-23T04:29:24;12.80;99.90
53711;DHT22;39605;52.704;6.752;2022-07-23T04:31:50;12.80;99.90
53711;DHT22;39605;52.704;6.752;2022-07-23T04:34:16;12.90;99.90
53711;DHT22;39605;52.704;6.752;2022-07-23T04:36:42;12.90;99.90
53711;DHT22;39605;52.704;6.752;2022-07-23T04:39:07;12.90;99.90
53711;DHT22;39605;52.704;6.752;2022-07-23T04:41:33;12.90;99.90
53711;DHT22;39605;52.704;6.752;2022-07-23T04:44:00;12.90;99.90
53711;DHT22;39605;52.704;6.752;2022-07-23T04:46:26;13.00;99.90
53711;DHT22;39605;52.704;6.752;2022-07-23T04:48:51;12.90;99.90
53711;DHT22;39605;52.704;6.752;2022-07-23T04:51:17;12.90;99.90
53711;DHT22;39605;52.704;6.752;2022-07-23T04:53:43;13.00;99.90
53711;DHT22;39605;52.704;6.752;2022-07-23T04:56:08;13.00;99.90
53711;DHT22;39605;52.704;6.752;2022-07-23T04:58:34;13.00;99.90
53711;DHT22;39605;52.704;6.752;2022-07-23T05:01:00;13.10;99.90
53711;DHT22;39605;52.704;6.752;2022-07-23T05:03:26;13.10;99.90
53711;DHT22;39605;52.704;6.752;2022-07-23T05:05:52;13.10;99.90
53711;DHT22;39605;52.704;6.752;2022-07-23T05:08:17;13.20;99.90
53711;DHT22;39605;52.704;6.752;2022-07-23T05:10:43;13.20;99.90
53711;DHT22;39605;52.704;6.752;2022-07-23T05:13:09;13.20;99.90
53711;DHT22;39605;52.704;6.752;2022-07-23T05:15:34;13.20;99.90
53711;DHT22;39605;52.704;6.752;2022-07-23T05:18:00;13.30;99.90
53711;DHT22;39605;52.704;6.752;2022-07-23T05:20:26;13.30;99.90
53711;DHT22;39605;52.704;6.752;2022-07-23T05:22:51;13.20;99.90
53711;DHT22;39605;52.704;6.752;2022-07-23T05:25:18;13.20;99.90
53711;DHT22;39605;52.704;6.752;2022-07-23T05:27:43;13.30;99.90
53711;DHT22;39605;52.704;6.752;2022-07-23T05:30:09;13.30;99.90
53711;DHT22;39605;52.704;6.752;2022-07-23T05:32:35;13.40;99.90
53711;DHT22;39605;52.704;6.752;2022-07-23T05:35:03;13.40;99.90
53711;DHT22;39605;52.704;6.752;2022-07-23T05:37:29;13.50;99.90
53711;DHT22;39605;52.704;6.752;2022-07-23T05:39:55;13.50;99.90
53711;DHT22;39605;52.704;6.752;2022-07-23T05:42:20;13.80;99.90
53711;DHT22;39605;52.704;6.752;2022-07-23T05:44:46;14.00;99.90
53711;DHT22;39605;52.704;6.752;2022-07-23T05:47:11;14.30;99.90
53711;DHT22;39605;52.704;6.752;2022-07-23T05:49:38;14.50;99.90
53711;DHT22;39605;52.704;6.752;2022-07-23T05:52:08;14.70;99.90
53711;DHT22;39605;52.704;6.752;2022-07-23T05:54:36;14.80;99.90
53711;DHT22;39605;52.704;6.752;2022-07-23T05:57:03;14.80;99.90
53711;DHT22;39605;52.704;6.752;2022-07-23T05:59:29;14.60;99.90
53711;DHT22;39605;52.704;6.752;2022-07-23T06:01:55;14.50;99.90
53711;DHT22;39605;52.704;6.752;2022-07-23T06:04:21;14.40;99.90
53711;DHT22;39605;52.704;6.752;2022-07-23T06:06:46;14.50;99.90
53711;DHT22;39605;52.704;6.752;2022-07-23T06:09:12;14.40;99.90
53711;DHT22;39605;52.704;6.752;2022-07-23T06:11:40;14.40;99.90
53711;DHT22;39605;52.704;6.752;2022-07-23T06:14:05;14.40;99.90
53711;DHT22;39605;52.704;6.752;2022-07-23T06:16:34;14.50;99.90
53711;DHT22;39605;52.704;6.752;2022-07-23T06:19:00;14.50;99.90
53711;DHT22;39605;52.704;6.752;2022-07-23T06:21:25;14.60;99.90
53711;DHT22;39605;52.704;6.752;2022-07-23T06:23:51;14.60;99.90
53711;DHT22;39605;52.704;6.752;2022-07-23T06:26:16;14.60;99.90
53711;DHT22;39605;52.704;6.752;2022-07-23T06:28:42;14.60;99.90
53711;DHT22;39605;52.704;6.752;2022-07-23T06:31:08;14.70;99.90
53711;DHT22;39605;52.704;6.752;2022-07-23T06:33:34;14.70;99.90
53711;DHT22;39605;52.704;6.752;2022-07-23T06:35:59;14.80;99.90
53711;DHT22;39605;52.704;6.752;2022-07-23T06:38:25;14.80;99.90
53711;DHT22;39605;52.704;6.752;2022-07-23T06:40:51;14.90;99.90
53711;DHT22;39605;52.704;6.752;2022-07-23T06:43:16;15.00;99.90
53711;DHT22;39605;52.704;6.752;2022-07-23T06:45:42;15.00;99.90
53711;DHT22;39605;52.704;6.752;2022-07-23T06:48:08;15.10;99.90
53711;DHT22;39605;52.704;6.752;2022-07-23T06:50:33;15.10;99.90
53711;DHT22;39605;52.704;6.752;2022-07-23T06:53:00;15.20;99.90
53711;DHT22;39605;52.704;6.752;2022-07-23T06:55:25;15.30;99.90
53711;DHT22;39605;52.704;6.752;2022-07-23T06:57:51;15.40;99.90
53711;DHT22;39605;52.704;6.752;2022-07-23T07:00:17;15.50;99.90
53711;DHT22;39605;52.704;6.752;2022-07-23T07:02:43;15.50;99.90
53711;DHT22;39605;52.704;6.752;2022-07-23T07:05:08;15.60;99.90
53711;DHT22;39605;52.704;6.752;2022-07-23T07:07:34;15.70;99.90
53711;DHT22;39605;52.704;6.752;2022-07-23T07:10:00;15.80;99.90
53711;DHT22;39605;52.704;6.752;2022-07-23T07:12:26;15.80;99.90
53711;DHT22;39605;52.704;6.752;2022-07-23T07:14:51;15.90;99.90
53711;DHT22;39605;52.704;6.752;2022-07-23T07:17:18;16.10;99.90
53711;DHT22;39605;52.704;6.752;2022-07-23T07:19:44;16.20;99.90
53711;DHT22;39605;52.704;6.752;2022-07-23T07:22:10;16.30;99.90
53711;DHT22;39605;52.704;6.752;2022-07-23T07:24:35;16.40;99.90
53711;DHT22;39605;52.704;6.752;2022-07-23T07:27:01;16.50;99.90
53711;DHT22;39605;52.704;6.752;2022-07-23T07:29:27;16.60;99.90
53711;DHT22;39605;52.704;6.752;2022-07-23T07:31:54;16.70;99.90
53711;DHT22;39605;52.704;6.752;2022-07-23T07:34:20;16.90;99.90
53711;DHT22;39605;52.704;6.752;2022-07-23T07:36:45;16.90;99.90
53711;DHT22;39605;52.704;6.752;2022-07-23T07:39:11;17.00;99.90
53711;DHT22;39605;52.704;6.752;2022-07-23T07:41:37;17.10;99.90
53711;DHT22;39605;52.704;6.752;2022-07-23T07:44:02;17.20;99.90
53711;DHT22;39605;52.704;6.752;2022-07-23T07:46:28;17.40;99.90
53711;DHT22;39605;52.704;6.752;2022-07-23T07:48:54;17.40;99.90
53711;DHT22;39605;52.704;6.752;2022-07-23T07:51:20;17.60;99.90
53711;DHT22;39605;52.704;6.752;2022-07-23T07:53:45;17.70;99.90
53711;DHT22;39605;52.704;6.752;2022-07-23T07:56:11;17.80;99.90
53711;DHT22;39605;52.704;6.752;2022-07-23T07:58:37;17.90;99.90
53711;DHT22;39605;52.704;6.752;2022-07-23T08:01:02;18.00;99.90
53711;DHT22;39605;52.704;6.752;2022-07-23T08:03:29;18.10;99.90
53711;DHT22;39605;52.704;6.752;2022-07-23T08:05:55;18.20;99.90
53711;DHT22;39605;52.704;6.752;2022-07-23T08:08:20;18.20;99.90
53711;DHT22;39605;52.704;6.752;2022-07-23T08:10:46;18.10;99.90
53711;DHT22;39605;52.704;6.752;2022-07-23T08:13:14;18.20;99.90
53711;DHT22;39605;52.704;6.752;2022-07-23T08:15:40;18.30;99.90
53711;DHT22;39605;52.704;6.752;2022-07-23T08:18:06;18.40;99.90
53711;DHT22;39605;52.704;6.752;2022-07-23T08:20:32;18.60;99.90
53711;DHT22;39605;52.704;6.752;2022-07-23T08:23:02;18.70;99.90
53711;DHT22;39605;52.704;6.752;2022-07-23T08:25:30;18.70;99.90
53711;DHT22;39605;52.704;6.752;2022-07-23T08:27:57;18.80;99.90
53711;DHT22;39605;52.704;6.752;2022-07-23T08:30:24;18.90;99.90
53711;DHT22;39605;52.704;6.752;2022-07-23T08:33:07;19.20;99.90
53711;DHT22;39605;52.704;6.752;2022-07-23T08:35:56;19.40;99.90
53711;DHT22;39605;52.704;6.752;2022-07-23T08:38:22;19.40;99.90
53711;DHT22;39605;52.704;6.752;2022-07-23T08:40:50;19.20;99.90
53711;DHT22;39605;52.704;6.752;2022-07-23T08:43:25;19.00;99.90
53711;DHT22;39605;52.704;6.752;2022-07-23T08:45:53;19.00;99.90
53711;DHT22;39605;52.704;6.752;2022-07-23T08:48:23;19.10;99.90
53711;DHT22;39605;52.704;6.752;2022-07-23T08:50:55;19.00;99.90
53711;DHT22;39605;52.704;6.752;2022-07-23T08:53:22;19.10;99.90
53711;DHT22;39605;52.704;6.752;2022-07-23T08:55:51;19.20;99.90
53711;DHT22;39605;52.704;6.752;2022-07-23T08:58:18;19.40;99.90
53711;DHT22;39605;52.704;6.752;2022-07-23T09:00:44;19.50;99.90
53711;DHT22;39605;52.704;6.752;2022-07-23T09:03:18;19.70;99.90
53711;DHT22;39605;52.704;6.752;2022-07-23T09:05:46;19.90;99.90
53711;DHT22;39605;52.704;6.752;2022-07-23T09:08:14;19.90;99.90
53711;DHT22;39605;52.704;6.752;2022-07-23T09:11:01;19.80;99.90
53711;DHT22;39605;52.704;6.752;2022-07-23T09:16:17;19.90;99.90
53711;DHT22;39605;52.704;6.752;2022-07-23T09:18:47;20.00;99.90
53711;DHT22;39605;52.704;6.752;2022-07-23T09:21:24;20.00;99.90
53711;DHT22;39605;52.704;6.752;2022-07-23T09:24:08;19.90;99.90
53711;DHT22;39605;52.704;6.752;2022-07-23T09:29:13;19.80;99.90
53711;DHT22;39605;52.704;6.752;2022-07-23T09:34:18;19.80;99.90
53711;DHT22;39605;52.704;6.752;2022-07-23T09:36:44;19.90;99.90
53711;DHT22;39605;52.704;6.752;2022-07-23T09:39:11;20.00;99.90
53711;DHT22;39605;52.704;6.752;2022-07-23T09:41:43;20.10;99.90
53711;DHT22;39605;52.704;6.752;2022-07-23T09:44:13;20.30;99.90
53711;DHT22;39605;52.704;6.752;2022-07-23T09:46:39;20.50;99.90
53711;DHT22;39605;52.704;6.752;2022-07-23T09:49:20;20.50;99.90
53711;DHT22;39605;52.704;6.752;2022-07-23T09:54:37;20.50;99.90
53711;DHT22;39605;52.704;6.752;2022-07-23T09:57:07;20.40;99.90
53711;DHT22;39605;52.704;6.752;2022-07-23T09:59:39;20.30;99.90
53711;DHT22;39605;52.704;6.752;2022-07-23T10:02:07;20.50;99.90
53711;DHT22;39605;52.704;6.752;2022-07-23T10:04:33;20.80;99.90
53711;DHT22;39605;52.704;6.752;2022-07-23T10:07:02;20.90;99.90
53711;DHT22;39605;52.704;6.752;2022-07-23T10:09:31;20.90;99.90
53711;DHT22;39605;52.704;6.752;2022-07-23T10:11:59;20.80;99.90
53711;DHT22;39605;52.704;6.752;2022-07-23T10:14:38;20.70;99.90
53711;DHT22;39605;52.704;6.752;2022-07-23T10:17:05;20.50;99.90
53711;DHT22;39605;52.704;6.752;2022-07-23T10:19:32;20.40;99.90
53711;DHT22;39605;52.704;6.752;2022-07-23T10:22:04;20.30;99.90
53711;DHT22;39605;52.704;6.752;2022-07-23T10:38:20;21.60;99.90
53711;DHT22;39605;52.704;6.752;2022-07-23T10:41:04;21.60;98.80
53711;DHT22;39605;52.704;6.752;2022-07-23T10:43:33;21.90;99.90
53711;DHT22;39605;52.704;6.752;2022-07-23T10:46:24;22.10;99.80
53711;DHT22;39605;52.704;6.752;2022-07-23T10:54:48;22.10;98.70
53711;DHT22;39605;52.704;6.752;2022-07-23T10:57:16;21.90;98.20
53711;DHT22;39605;52.704;6.752;2022-07-23T11:02:42;21.60;97.60
53711;DHT22;39605;52.704;6.752;2022-07-23T11:05:10;21.80;99.90
53711;DHT22;39605;52.704;6.752;2022-07-23T11:10:45;22.10;99.90
53711;DHT22;39605;52.704;6.752;2022-07-23T11:36:58;22.80;96.30
53711;DHT22;39605;52.704;6.752;2022-07-23T11:39:27;22.70;97.50
53711;DHT22;39605;52.704;6.752;2022-07-23T11:41:53;22.90;99.40
53711;DHT22;39605;52.704;6.752;2022-07-23T11:44:37;23.30;96.10
53711;DHT22;39605;52.704;6.752;2022-07-23T11:47:05;23.50;98.20
53711;DHT22;39605;52.704;6.752;2022-07-23T11:49:32;23.70;96.10
53711;DHT22;39605;52.704;6.752;2022-07-23T11:52:13;23.80;96.00
53711;DHT22;39605;52.704;6.752;2022-07-23T11:54:57;24.00;98.70
53711;DHT22;39605;52.704;6.752;2022-07-23T11:57:26;23.80;95.80
53711;DHT22;39605;52.704;6.752;2022-07-23T11:59:58;23.70;95.60
53711;DHT22;39605;52.704;6.752;2022-07-23T12:02:24;23.70;96.60
53711;DHT22;39605;52.704;6.752;2022-07-23T12:04:51;23.60;94.10
53711;DHT22;39605;52.704;6.752;2022-07-23T12:07:31;23.50;93.90
53711;DHT22;39605;52.704;6.752;2022-07-23T12:10:08;23.60;97.30
53711;DHT22;39605;52.704;6.752;2022-07-23T12:12:39;23.60;96.40
53711;DHT22;39605;52.704;6.752;2022-07-23T12:15:06;23.70;95.80
53711;DHT22;39605;52.704;6.752;2022-07-23T12:17:35;23.90;94.00
53711;DHT22;39605;52.704;6.752;2022-07-23T12:20:02;24.10;93.50
53711;DHT22;39605;52.704;6.752;2022-07-23T12:22:42;24.20;93.40
53711;DHT22;39605;52.704;6.752;2022-07-23T12:25:13;24.40;93.50
53711;DHT22;39605;52.704;6.752;2022-07-23T12:27:41;24.70;95.20
53711;DHT22;39605;52.704;6.752;2022-07-23T12:30:21;24.70;88.40
53711;DHT22;39605;52.704;6.752;2022-07-23T12:32:49;24.30;90.90
53711;DHT22;39605;52.704;6.752;2022-07-23T12:35:15;24.30;92.50
53711;DHT22;39605;52.704;6.752;2022-07-23T12:37:43;24.40;92.00
53711;DHT22;39605;52.704;6.752;2022-07-23T12:40:23;24.40;91.80
53711;DHT22;39605;52.704;6.752;2022-07-23T12:42:51;24.60;93.20
53711;DHT22;39605;52.704;6.752;2022-07-23T12:45:18;24.70;93.70
53711;DHT22;39605;52.704;6.752;2022-07-23T12:48:04;24.80;93.80
53711;DHT22;39605;52.704;6.752;2022-07-23T12:50:44;24.90;91.40
53711;DHT22;39605;52.704;6.752;2022-07-23T12:53:25;24.80;91.10
53711;DHT22;39605;52.704;6.752;2022-07-23T12:56:01;25.00;92.80
53711;DHT22;39605;52.704;6.752;2022-07-23T12:58:40;25.10;94.00
53711;DHT22;39605;52.704;6.752;2022-07-23T13:01:07;25.00;92.30
53711;DHT22;39605;52.704;6.752;2022-07-23T13:03:40;24.80;90.40
53711;DHT22;39605;52.704;6.752;2022-07-23T13:06:08;24.40;90.10
53711;DHT22;39605;52.704;6.752;2022-07-23T13:08:36;24.60;93.40
53711;DHT22;39605;52.704;6.752;2022-07-23T13:11:03;24.80;92.80
53711;DHT22;39605;52.704;6.752;2022-07-23T13:13:31;24.80;92.60
53711;DHT22;39605;52.704;6.752;2022-07-23T13:15:57;24.50;91.30
53711;DHT22;39605;52.704;6.752;2022-07-23T13:18:23;24.60;93.40
53711;DHT22;39605;52.704;6.752;2022-07-23T13:20:49;24.70;91.60
53711;DHT22;39605;52.704;6.752;2022-07-23T13:23:16;24.80;94.10
53711;DHT22;39605;52.704;6.752;2022-07-23T13:25:42;24.90;92.30
53711;DHT22;39605;52.704;6.752;2022-07-23T13:28:08;25.00;90.80
53711;DHT22;39605;52.704;6.752;2022-07-23T13:30:34;25.10;93.00
53711;DHT22;39605;52.704;6.752;2022-07-23T13:33:01;25.20;92.50
53711;DHT22;39605;52.704;6.752;2022-07-23T13:35:27;25.00;89.60
53711;DHT22;39605;52.704;6.752;2022-07-23T13:37:53;24.80;90.80
53711;DHT22;39605;52.704;6.752;2022-07-23T13:40:18;24.50;90.30
53711;DHT22;39605;52.704;6.752;2022-07-23T13:42:44;24.20;90.80
53711;DHT22;39605;52.704;6.752;2022-07-23T13:45:10;24.00;91.10
53711;DHT22;39605;52.704;6.752;2022-07-23T13:47:36;23.70;91.60
53711;DHT22;39605;52.704;6.752;2022-07-23T13:50:02;23.70;93.60
53711;DHT22;39605;52.704;6.752;2022-07-23T13:52:28;23.90;96.50
53711;DHT22;39605;52.704;6.752;2022-07-23T13:54:53;24.20;93.30
53711;DHT22;39605;52.704;6.752;2022-07-23T13:57:19;24.20;94.20
53711;DHT22;39605;52.704;6.752;2022-07-23T13:59:45;24.00;92.10
53711;DHT22;39605;52.704;6.752;2022-07-23T14:02:14;23.90;93.70
53711;DHT22;39605;52.704;6.752;2022-07-23T14:04:41;24.00;92.30
53711;DHT22;39605;52.704;6.752;2022-07-23T14:07:06;24.00;95.10
53711;DHT22;39605;52.704;6.752;2022-07-23T14:09:32;23.90;92.30
53711;DHT22;39605;52.704;6.752;2022-07-23T14:11:59;23.80;93.50
53711;DHT22;39605;52.704;6.752;2022-07-23T14:14:25;23.80;92.50
53711;DHT22;39605;52.704;6.752;2022-07-23T14:16:51;23.90;93.10
53711;DHT22;39605;52.704;6.752;2022-07-23T14:19:16;24.10;92.20
53711;DHT22;39605;52.704;6.752;2022-07-23T14:21:42;24.40;93.30
53711;DHT22;39605;52.704;6.752;2022-07-23T14:24:08;24.40;92.40
53711;DHT22;39605;52.704;6.752;2022-07-23T14:26:34;24.60;90.90
53711;DHT22;39605;52.704;6.752;2022-07-23T14:28:59;24.80;93.50
53711;DHT22;39605;52.704;6.752;2022-07-23T14:31:26;24.80;91.40
53711;DHT22;39605;52.704;6.752;2022-07-23T14:33:52;24.70;90.90
53711;DHT22;39605;52.704;6.752;2022-07-23T14:36:17;24.60;90.60
53711;DHT22;39605;52.704;6.752;2022-07-23T14:38:43;24.40;91.60
53711;DHT22;39605;52.704;6.752;2022-07-23T14:41:09;24.40;90.90
53711;DHT22;39605;52.704;6.752;2022-07-23T14:43:36;24.50;92.60
53711;DHT22;39605;52.704;6.752;2022-07-23T14:46:02;24.60;92.70
53711;DHT22;39605;52.704;6.752;2022-07-23T14:48:28;24.80;92.30
53711;DHT22;39605;52.704;6.752;2022-07-23T14:50:53;24.90;93.10
53711;DHT22;39605;52.704;6.752;2022-07-23T14:53:19;24.90;90.60
53711;DHT22;39605;52.704;6.752;2022-07-23T14:55:45;24.90;93.10
53711;DHT22;39605;52.704;6.752;2022-07-23T14:58:10;24.90;92.10
53711;DHT22;39605;52.704;6.752;2022-07-23T15:00:36;24.90;91.50
53711;DHT22;39605;52.704;6.752;2022-07-23T15:03:02;24.90;90.70
53711;DHT22;39605;52.704;6.752;2022-07-23T15:05:28;24.90;92.10
53711;DHT22;39605;52.704;6.752;2022-07-23T15:07:54;24.90;92.60
53711;DHT22;39605;52.704;6.752;2022-07-23T15:10:20;24.80;91.60
53711;DHT22;39605;52.704;6.752;2022-07-23T15:12:46;24.60;90.40
53711;DHT22;39605;52.704;6.752;2022-07-23T15:15:12;24.70;91.60
53711;DHT22;39605;52.704;6.752;2022-07-23T15:17:38;24.70;92.60
53711;DHT22;39605;52.704;6.752;2022-07-23T15:20:05;24.50;90.10
53711;DHT22;39605;52.704;6.752;2022-07-23T15:22:31;24.50;91.40
53711;DHT22;39605;52.704;6.752;2022-07-23T15:24:56;24.50;91.90
53711;DHT22;39605;52.704;6.752;2022-07-23T15:27:22;24.50;93.40
53711;DHT22;39605;52.704;6.752;2022-07-23T15:29:48;24.50;93.00
53711;DHT22;39605;52.704;6.752;2022-07-23T15:32:13;24.40;91.50
53711;DHT22;39605;52.704;6.752;2022-07-23T15:34:39;24.30;91.20
53711;DHT22;39605;52.704;6.752;2022-07-23T15:37:05;24.20;91.30
53711;DHT22;39605;52.704;6.752;2022-07-23T15:39:31;24.10;92.00
53711;DHT22;39605;52.704;6.752;2022-07-23T15:42:00;24.10;92.50
53711;DHT22;39605;52.704;6.752;2022-07-23T15:44:26;24.00;92.00
53711;DHT22;39605;52.704;6.752;2022-07-23T15:46:52;24.00;93.50
53711;DHT22;39605;52.704;6.752;2022-07-23T15:49:18;24.00;92.60
53711;DHT22;39605;52.704;6.752;2022-07-23T15:51:43;24.00;92.50
53711;DHT22;39605;52.704;6.752;2022-07-23T15:54:09;23.80;91.20
53711;DHT22;39605;52.704;6.752;2022-07-23T15:56:35;23.70;91.70
53711;DHT22;39605;52.704;6.752;2022-07-23T15:59:01;23.70;93.60
53711;DHT22;39605;52.704;6.752;2022-07-23T16:01:26;23.70;93.60
53711;DHT22;39605;52.704;6.752;2022-07-23T16:03:57;23.60;94.00
53711;DHT22;39605;52.704;6.752;2022-07-23T16:06:24;23.50;94.00
53711;DHT22;39605;52.704;6.752;2022-07-23T16:08:50;23.50;94.80
53711;DHT22;39605;52.704;6.752;2022-07-23T16:11:17;23.50;94.60
53711;DHT22;39605;52.704;6.752;2022-07-23T16:13:43;23.50;94.80
53711;DHT22;39605;52.704;6.752;2022-07-23T16:16:09;23.50;95.20
53711;DHT22;39605;52.704;6.752;2022-07-23T16:18:35;23.50;94.00
53711;DHT22;39605;52.704;6.752;2022-07-23T16:21:00;23.30;94.00
53711;DHT22;39605;52.704;6.752;2022-07-23T16:23:26;23.30;96.10
53711;DHT22;39605;52.704;6.752;2022-07-23T16:25:52;23.20;94.80
53711;DHT22;39605;52.704;6.752;2022-07-23T16:28:18;23.10;96.70
53711;DHT22;39605;52.704;6.752;2022-07-23T16:30:43;23.20;95.50